sensor_id;sensor_type;location;lat;lon;timestamp;temperature;humidity
27647;DHT22;42229;51.230;6.240;2023-04-15T00:00:34;8.50;99.90
27647;DHT22;42229;51.230;6.240;2023-04-15T00:03:00;8.50;99.90
27647;DHT22;42229;51.230;6.240;2023-04-15T00:05:30;8.50;99.90
27647;DHT22;42229;51.230;6.240;2023-04-15T00:07:56;8.40;99.90
27647;DHT22;42229;51.230;6.240;2023-04-15T00:10:24;8.40;99.90
27647;DHT22;42229;51.230;6.240;2023-04-15T00:12:50;8.40;99.90
27647;DHT22;42229;51.230;6.240;2023-04-15T00:15:17;8.40;99.90
27647;DHT22;42229;51.230;6.240;2023-04-15T00:17:43;8.30;99.90
27647;DHT22;42229;51.230;6.240;2023-04-15T00:20:10;8.30;99.90
27647;DHT22;42229;51.230;6.240;2023-04-15T00:22:36;8.30;99.90
27647;DHT22;42229;51.230;6.240;2023-04-15T00:25:02;8.20;99.90
27647;DHT22;42229;51.230;6.240;2023-04-15T00:27:29;8.20;99.90
27647;DHT22;42229;51.230;6.240;2023-04-15T00:29:55;8.20;99.90
27647;DHT22;42229;51.230;6.240;2023-04-15T00:32:22;8.10;99.90
27647;DHT22;42229;51.230;6.240;2023-04-15T00:34:48;8.00;99.90
27647;DHT22;42229;51.230;6.240;2023-04-15T00:37:14;8.00;99.90
27647;DHT22;42229;51.230;6.240;2023-04-15T00:39:41;7.90;99.90
27647;DHT22;42229;51.230;6.240;2023-04-15T00:42:07;7.90;99.90
27647;DHT22;42229;51.230;6.240;2023-04-15T00:44:33;7.80;99.90
27647;DHT22;42229;51.230;6.240;2023-04-15T00:47:00;7.70;99.90
27647;DHT22;42229;51.230;6.240;2023-04-15T00:49:27;7.70;99.90
27647;DHT22;42229;51.230;6.240;2023-04-15T00:51:54;7.70;99.90
27647;DHT22;42229;51.230;6.240;2023-04-15T00:54:20;7.60;99.90
27647;DHT22;42229;51.230;6.240;2023-04-15T00:56:47;7.60;99.90
27647;DHT22;42229;51.230;6.240;2023-04-15T00:59:13;7.50;99.90
27647;DHT22;42229;51.230;6.240;2023-04-15T01:01:40;7.50;99.90
27647;DHT22;42229;51.230;6.240;2023-04-15T01:04:06;7.40;99.90
27647;DHT22;42229;51.230;6.240;2023-04-15T01:06:34;7.40;99.90
27647;DHT22;42229;51.230;6.240;2023-04-15T01:09:01;7.30;99.90
27647;DHT22;42229;51.230;6.240;2023-04-15T01:11:28;7.30;99.90
27647;DHT22;42229;51.230;6.240;2023-04-15T01:13:54;7.20;99.90
27647;DHT22;42229;51.230;6.240;2023-04-15T01:16:21;7.20;99.90
27647;DHT22;42229;51.230;6.240;2023-04-15T01:18:48;7.20;99.90
27647;DHT22;42229;51.230;6.240;2023-04-15T01:21:14;7.10;99.90
27647;DHT22;42229;51.230;6.240;2023-04-15T01:23:40;7.10;99.90
27647;DHT22;42229;51.230;6.240;2023-04-15T01:26:08;7.10;99.90
27647;DHT22;42229;51.230;6.240;2023-04-15T01:28:35;7.00;99.90
27647;DHT22;42229;51.230;6.240;2023-04-15T01:31:04;7.00;99.90
27647;DHT22;42229;51.230;6.240;2023-04-15T01:33:32;7.00;99.90
27647;DHT22;42229;51.230;6.240;2023-04-15T01:35:58;6.90;99.90
27647;DHT22;42229;51.230;6.240;2023-04-15T01:38:25;6.90;99.90
27647;DHT22;42229;51.230;6.240;2023-04-15T01:40:51;6.80;99.90
27647;DHT22;42229;51.230;6.240;2023-04-15T01:43:18;6.80;99.90
27647;DHT22;42229;51.230;6.240;2023-04-15T01:45:44;6.70;99.90
27647;DHT22;42229;51.230;6.240;2023-04-15T01:48:10;6.70;99.90
27647;DHT22;42229;51.230;6.240;2023-04-15T01:50:37;6.60;99.90
27647;DHT22;42229;51.230;6.240;2023-04-15T01:53:03;6.60;99.90
27647;DHT22;42229;51.230;6.240;2023-04-15T01:55:29;6.50;99.90
27647;DHT22;42229;51.230;6.240;2023-04-15T01:57:56;6.50;99.90
27647;DHT22;42229;51.230;6.240;2023-04-15T02:00:22;6.50;99.90
27647;DHT22;42229;51.230;6.240;2023-04-15T02:02:48;6.40;99.90
27647;DHT22;42229;51.230;6.240;2023-04-15T02:05:15;6.40;99.90
27647;DHT22;42229;51.230;6.240;2023-04-15T02:07:46;6.40;99.90
27647;DHT22;42229;51.230;6.240;2023-04-15T02:10:13;6.30;99.90
27647;DHT22;42229;51.230;6.240;2023-04-15T02:12:41;6.30;99.90
27647;DHT22;42229;51.230;6.240;2023-04-15T02:15:07;6.30;99.90
27647;DHT22;42229;51.230;6.240;2023-04-15T02:17:38;6.30;99.90
27647;DHT22;42229;51.230;6.240;2023-04-15T02:20:04;6.20;99.90
27647;DHT22;42229;51.230;6.240;2023-04-15T02:22:31;6.20;99.90
27647;DHT22;42229;51.230;6.240;2023-04-15T02:24:57;6.20;99.90
27647;DHT22;42229;51.230;6.240;2023-04-15T02:27:23;6.20;99.90
27647;DHT22;42229;51.230;6.240;2023-04-15T02:29:49;6.20;99.90
27647;DHT22;42229;51.230;6.240;2023-04-15T02:32:16;6.20;99.90
27647;DHT22;42229;51.230;6.240;2023-04-15T02:34:42;6.10;99.90
27647;DHT22;42229;51.230;6.240;2023-04-15T02:37:10;6.10;99.90
27647;DHT22;42229;51.230;6.240;2023-04-15T02:39:37;6.10;99.90
27647;DHT22;42229;51.230;6.240;2023-04-15T02:42:03;6.10;99.90
27647;DHT22;42229;51.230;6.240;2023-04-15T02:44:31;6.00;99.90
27647;DHT22;42229;51.230;6.240;2023-04-15T02:47:01;6.00;99.90
27647;DHT22;42229;51.230;6.240;2023-04-15T02:49:28;6.00;99.90
27647;DHT22;42229;51.230;6.240;2023-04-15T02:51:57;6.00;99.90
27647;DHT22;42229;51.230;6.240;2023-04-15T02:54:25;5.90;99.90
27647;DHT22;42229;51.230;6.240;2023-04-15T02:56:53;5.90;99.90
27647;DHT22;42229;51.230;6.240;2023-04-15T02:59:21;5.90;99.90
27647;DHT22;42229;51.230;6.240;2023-04-15T03:01:47;5.80;99.90
27647;DHT22;42229;51.230;6.240;2023-04-15T03:04:13;5.80;99.90
27647;DHT22;42229;51.230;6.240;2023-04-15T03:06:40;5.80;99.90
27647;DHT22;42229;51.230;6.240;2023-04-15T03:09:08;5.80;99.90
27647;DHT22;42229;51.230;6.240;2023-04-15T03:11:37;5.70;99.90
27647;DHT22;42229;51.230;6.240;2023-04-15T03:14:06;5.70;99.90
27647;DHT22;42229;51.230;6.240;2023-04-15T03:16:35;5.70;99.90
27647;DHT22;42229;51.230;6.240;2023-04-15T03:19:01;5.60;99.90
27647;DHT22;42229;51.230;6.240;2023-04-15T03:21:28;5.60;99.90
27647;DHT22;42229;51.230;6.240;2023-04-15T03:23:54;5.60;99.90
27647;DHT22;42229;51.230;6.240;2023-04-15T03:26:29;5.60;99.90
27647;DHT22;42229;51.230;6.240;2023-04-15T03:29:03;5.50;99.90
27647;DHT22;42229;51.230;6.240;2023-04-15T03:31:30;5.50;99.90
27647;DHT22;42229;51.230;6.240;2023-04-15T03:33:56;5.50;99.90
27647;DHT22;42229;51.230;6.240;2023-04-15T03:36:23;5.50;99.90
27647;DHT22;42229;51.230;6.240;2023-04-15T03:38:49;5.50;99.90
27647;DHT22;42229;51.230;6.240;2023-04-15T03:41:15;5.40;99.90
27647;DHT22;42229;51.230;6.240;2023-04-15T03:43:41;5.40;99.90
27647;DHT22;42229;51.230;6.240;2023-04-15T03:46:07;5.40;99.90
27647;DHT22;42229;51.230;6.240;2023-04-15T03:48:34;5.40;99.90
27647;DHT22;42229;51.230;6.240;2023-04-15T03:51:00;5.40;99.90
27647;DHT22;42229;51.230;6.240;2023-04-15T03:53:26;5.40;99.90
27647;DHT22;42229;51.230;6.240;2023-04-15T03:55:52;5.40;99.90
27647;DHT22;42229;51.230;6.240;2023-04-15T03:58:19;5.40;99.90
27647;DHT22;42229;51.230;6.240;2023-04-15T04:00:45;5.40;99.90
27647;DHT22;42229;51.230;6.240;2023-04-15T04:03:11;5.40;99.90
27647;DHT22;42229;51.230;6.240;2023-04-15T04:05:37;5.40;99.90
27647;DHT22;42229;51.230;6.240;2023-04-15T04:08:06;5.40;99.90
27647;DHT22;42229;51.230;6.240;2023-04-15T04:10:32;5.50;99.90
27647;DHT22;42229;51.230;6.240;2023-04-15T04:12:58;5.50;99.90
27647;DHT22;42229;51.230;6.240;2023-04-15T04:15:24;5.50;99.90
27647;DHT22;42229;51.230;6.240;2023-04-15T04:17:51;5.50;99.90
27647;DHT22;42229;51.230;6.240;2023-04-15T04:20:17;5.50;99.90
27647;DHT22;42229;51.230;6.240;2023-04-15T04:22:43;5.50;99.90
27647;DHT22;42229;51.230;6.240;2023-04-15T04:25:09;5.60;99.90
27647;DHT22;42229;51.230;6.240;2023-04-15T04:27:36;5.60;99.90
27647;DHT22;42229;51.230;6.240;2023-04-15T04:30:02;5.60;99.90
27647;DHT22;42229;51.230;6.240;2023-04-15T04:32:29;5.60;99.90
27647;DHT22;42229;51.230;6.240;2023-04-15T04:34:56;5.60;99.90
27647;DHT22;42229;51.230;6.240;2023-04-15T04:37:22;5.60;99.90
27647;DHT22;42229;51.230;6.240;2023-04-15T04:39:49;5.60;99.90
27647;DHT22;42229;51.230;6.240;2023-04-15T04:42:15;5.60;99.90
27647;DHT22;42229;51.230;6.240;2023-04-15T04:44:41;5.60;99.90
27647;DHT22;42229;51.230;6.240;2023-04-15T04:47:08;5.60;99.90
27647;DHT22;42229;51.230;6.240;2023-04-15T04:49:34;5.60;99.90
27647;DHT22;42229;51.230;6.240;2023-04-15T04:52:00;5.60;99.90
27647;DHT22;42229;51.230;6.240;2023-04-15T04:54:27;5.60;99.90
27647;DHT22;42229;51.230;6.240;2023-04-15T04:56:53;5.60;99.90
27647;DHT22;42229;51.230;6.240;2023-04-15T04:59:19;5.60;99.90
27647;DHT22;42229;51.230;6.240;2023-04-15T05:01:46;5.70;99.90
27647;DHT22;42229;51.230;6.240;2023-04-15T05:04:12;5.70;99.90
27647;DHT22;42229;51.230;6.240;2023-04-15T05:06:38;5.70;99.90
27647;DHT22;42229;51.230;6.240;2023-04-15T05:09:04;5.70;99.90
27647;DHT22;42229;51.230;6.240;2023-04-15T05:11:30;5.70;99.90
27647;DHT22;42229;51.230;6.240;2023-04-15T05:13:57;5.80;99.90
27647;DHT22;42229;51.230;6.240;2023-04-15T05:16:24;5.80;99.90
27647;DHT22;42229;51.230;6.240;2023-04-15T05:18:50;5.90;99.90
27647;DHT22;42229;51.230;6.240;2023-04-15T05:21:17;6.00;99.90
27647;DHT22;42229;51.230;6.240;2023-04-15T05:23:43;6.00;99.90
27647;DHT22;42229;51.230;6.240;2023-04-15T05:26:10;6.00;99.90
27647;DHT22;42229;51.230;6.240;2023-04-15T05:28:36;6.10;99.90
27647;DHT22;42229;51.230;6.240;2023-04-15T05:31:02;6.10;99.90
27647;DHT22;42229;51.230;6.240;2023-04-15T05:33:28;6.20;99.90
27647;DHT22;42229;51.230;6.240;2023-04-15T05:35:54;6.20;99.90
27647;DHT22;42229;51.230;6.240;2023-04-15T05:38:21;6.30;99.90
27647;DHT22;42229;51.230;6.240;2023-04-15T05:40:47;6.30;99.90
27647;DHT22;42229;51.230;6.240;2023-04-15T05:43:13;6.40;99.90
27647;DHT22;42229;51.230;6.240;2023-04-15T05:45:39;6.50;99.90
27647;DHT22;42229;51.230;6.240;2023-04-15T05:48:06;6.50;99.90
27647;DHT22;42229;51.230;6.240;2023-04-15T05:50:32;6.60;99.90
27647;DHT22;42229;51.230;6.240;2023-04-15T05:52:58;6.70;99.90
27647;DHT22;42229;51.230;6.240;2023-04-15T05:55:25;6.80;99.90
27647;DHT22;42229;51.230;6.240;2023-04-15T05:57:51;6.90;99.90
27647;DHT22;42229;51.230;6.240;2023-04-15T06:00:17;7.00;99.90
27647;DHT22;42229;51.230;6.240;2023-04-15T06:02:43;7.10;99.90
27647;DHT22;42229;51.230;6.240;2023-04-15T06:05:10;7.20;99.90
27647;DHT22;42229;51.230;6.240;2023-04-15T06:07:36;7.30;99.90
27647;DHT22;42229;51.230;6.240;2023-04-15T06:10:03;7.40;99.90
27647;DHT22;42229;51.230;6.240;2023-04-15T06:12:30;7.50;99.90
27647;DHT22;42229;51.230;6.240;2023-04-15T06:14:56;7.60;99.90
27647;DHT22;42229;51.230;6.240;2023-04-15T06:17:23;7.70;99.90
27647;DHT22;42229;51.230;6.240;2023-04-15T06:19:49;7.80;99.90
27647;DHT22;42229;51.230;6.240;2023-04-15T06:22:20;7.90;99.90
27647;DHT22;42229;51.230;6.240;2023-04-15T06:24:48;8.00;99.90
27647;DHT22;42229;51.230;6.240;2023-04-15T06:27:17;8.10;99.90
27647;DHT22;42229;51.230;6.240;2023-04-15T06:29:44;8.20;99.90
27647;DHT22;42229;51.230;6.240;2023-04-15T06:32:10;8.30;99.90
27647;DHT22;42229;51.230;6.240;2023-04-15T06:34:37;8.40;99.90
27647;DHT22;42229;51.230;6.240;2023-04-15T06:37:03;8.50;99.90
27647;DHT22;42229;51.230;6.240;2023-04-15T06:39:29;8.60;99.90
27647;DHT22;42229;51.230;6.240;2023-04-15T06:41:55;8.70;99.90
27647;DHT22;42229;51.230;6.240;2023-04-15T06:44:22;8.80;99.90
27647;DHT22;42229;51.230;6.240;2023-04-15T06:46:48;9.00;99.90
27647;DHT22;42229;51.230;6.240;2023-04-15T06:49:14;9.10;99.90
27647;DHT22;42229;51.230;6.240;2023-04-15T06:51:41;9.10;99.90
27647;DHT22;42229;51.230;6.240;2023-04-15T06:54:07;9.20;99.90
27647;DHT22;42229;51.230;6.240;2023-04-15T06:56:33;9.30;99.90
27647;DHT22;42229;51.230;6.240;2023-04-15T06:58:59;9.40;99.90
27647;DHT22;42229;51.230;6.240;2023-04-15T07:01:26;9.50;99.90
27647;DHT22;42229;51.230;6.240;2023-04-15T07:03:52;9.50;99.90
27647;DHT22;42229;51.230;6.240;2023-04-15T07:06:19;9.60;99.90
27647;DHT22;42229;51.230;6.240;2023-04-15T07:08:46;9.70;99.90
27647;DHT22;42229;51.230;6.240;2023-04-15T07:11:12;9.70;99.90
27647;DHT22;42229;51.230;6.240;2023-04-15T07:13:39;9.80;99.90
27647;DHT22;42229;51.230;6.240;2023-04-15T07:16:05;9.90;99.90
27647;DHT22;42229;51.230;6.240;2023-04-15T07:18:31;9.90;99.90
27647;DHT22;42229;51.230;6.240;2023-04-15T07:20:57;10.00;99.90
27647;DHT22;42229;51.230;6.240;2023-04-15T07:23:24;10.00;99.90
27647;DHT22;42229;51.230;6.240;2023-04-15T07:25:50;10.10;99.90
27647;DHT22;42229;51.230;6.240;2023-04-15T07:28:17;10.10;99.90
27647;DHT22;42229;51.230;6.240;2023-04-15T07:30:43;10.20;99.90
27647;DHT22;42229;51.230;6.240;2023-04-15T07:33:09;10.20;99.90
27647;DHT22;42229;51.230;6.240;2023-04-15T07:35:35;10.30;99.90
27647;DHT22;42229;51.230;6.240;2023-04-15T07:38:02;10.30;99.90
27647;DHT22;42229;51.230;6.240;2023-04-15T07:40:28;10.40;99.90
27647;DHT22;42229;51.230;6.240;2023-04-15T07:42:57;10.50;99.90
27647;DHT22;42229;51.230;6.240;2023-04-15T07:45:23;10.60;99.90
27647;DHT22;42229;51.230;6.240;2023-04-15T07:47:50;10.60;99.90
27647;DHT22;42229;51.230;6.240;2023-04-15T07:50:16;10.70;99.90
27647;DHT22;42229;51.230;6.240;2023-04-15T07:52:43;10.80;99.90
27647;DHT22;42229;51.230;6.240;2023-04-15T07:55:09;10.80;99.90
27647;DHT22;42229;51.230;6.240;2023-04-15T07:57:35;10.90;99.90
27647;DHT22;42229;51.230;6.240;2023-04-15T08:00:02;11.10;99.90
27647;DHT22;42229;51.230;6.240;2023-04-15T08:02:38;11.10;99.90
27647;DHT22;42229;51.230;6.240;2023-04-15T08:05:05;11.30;99.90
27647;DHT22;42229;51.230;6.240;2023-04-15T08:07:32;11.30;99.90
27647;DHT22;42229;51.230;6.240;2023-04-15T08:09:58;11.50;99.90
27647;DHT22;42229;51.230;6.240;2023-04-15T08:12:24;11.60;99.90
27647;DHT22;42229;51.230;6.240;2023-04-15T08:14:51;11.70;99.90
27647;DHT22;42229;51.230;6.240;2023-04-15T08:17:17;11.80;99.90
27647;DHT22;42229;51.230;6.240;2023-04-15T08:19:43;11.90;99.90
27647;DHT22;42229;51.230;6.240;2023-04-15T08:22:09;12.00;99.90
27647;DHT22;42229;51.230;6.240;2023-04-15T08:24:37;12.10;99.90
27647;DHT22;42229;51.230;6.240;2023-04-15T08:27:03;12.20;99.90
27647;DHT22;42229;51.230;6.240;2023-04-15T08:29:31;12.30;99.90
27647;DHT22;42229;51.230;6.240;2023-04-15T08:32:00;12.40;99.90
27647;DHT22;42229;51.230;6.240;2023-04-15T08:34:27;12.50;99.90
27647;DHT22;42229;51.230;6.240;2023-04-15T08:36:53;12.60;99.90
27647;DHT22;42229;51.230;6.240;2023-04-15T08:39:19;12.70;99.90
27647;DHT22;42229;51.230;6.240;2023-04-15T08:41:46;12.90;99.90
27647;DHT22;42229;51.230;6.240;2023-04-15T08:44:16;13.00;99.90
27647;DHT22;42229;51.230;6.240;2023-04-15T08:46:43;13.10;99.90
27647;DHT22;42229;51.230;6.240;2023-04-15T08:49:09;13.30;99.90
27647;DHT22;42229;51.230;6.240;2023-04-15T08:51:38;13.40;99.90
27647;DHT22;42229;51.230;6.240;2023-04-15T08:54:05;13.60;99.90
27647;DHT22;42229;51.230;6.240;2023-04-15T08:56:32;13.70;99.90
27647;DHT22;42229;51.230;6.240;2023-04-15T08:58:59;13.80;99.90
27647;DHT22;42229;51.230;6.240;2023-04-15T09:01:25;13.90;99.90
27647;DHT22;42229;51.230;6.240;2023-04-15T09:03:51;14.00;99.90
27647;DHT22;42229;51.230;6.240;2023-04-15T09:06:21;14.10;99.90
27647;DHT22;42229;51.230;6.240;2023-04-15T09:08:48;14.20;99.90
27647;DHT22;42229;51.230;6.240;2023-04-15T09:11:15;14.20;99.90
27647;DHT22;42229;51.230;6.240;2023-04-15T09:13:42;14.30;99.90
27647;DHT22;42229;51.230;6.240;2023-04-15T09:16:09;14.30;99.90
27647;DHT22;42229;51.230;6.240;2023-04-15T09:18:36;14.50;99.90
27647;DHT22;42229;51.230;6.240;2023-04-15T09:21:13;14.50;99.90
27647;DHT22;42229;51.230;6.240;2023-04-15T09:23:52;14.60;99.90
27647;DHT22;42229;51.230;6.240;2023-04-15T09:26:28;14.70;99.90
27647;DHT22;42229;51.230;6.240;2023-04-15T09:29:03;14.80;99.90
27647;DHT22;42229;51.230;6.240;2023-04-15T09:31:31;14.90;99.90
27647;DHT22;42229;51.230;6.240;2023-04-15T09:33:58;15.00;99.90
27647;DHT22;42229;51.230;6.240;2023-04-15T09:36:24;15.10;99.90
27647;DHT22;42229;51.230;6.240;2023-04-15T09:38:54;15.20;99.90
27647;DHT22;42229;51.230;6.240;2023-04-15T09:41:22;15.30;99.90
27647;DHT22;42229;51.230;6.240;2023-04-15T09:43:49;15.40;99.90
27647;DHT22;42229;51.230;6.240;2023-04-15T09:46:16;15.40;99.90
27647;DHT22;42229;51.230;6.240;2023-04-15T09:48:42;15.50;99.90
27647;DHT22;42229;51.230;6.240;2023-04-15T09:51:08;15.60;99.90
27647;DHT22;42229;51.230;6.240;2023-04-15T09:53:35;15.70;99.90
27647;DHT22;42229;51.230;6.240;2023-04-15T09:56:01;15.70;99.90
27647;DHT22;42229;51.230;6.240;2023-04-15T09:58:29;15.70;99.90
27647;DHT22;42229;51.230;6.240;2023-04-15T10:00:57;15.70;99.90
27647;DHT22;42229;51.230;6.240;2023-04-15T10:03:25;15.80;99.90
27647;DHT22;42229;51.230;6.240;2023-04-15T10:05:53;15.90;99.90
27647;DHT22;42229;51.230;6.240;2023-04-15T10:08:22;15.90;99.90
27647;DHT22;42229;51.230;6.240;2023-04-15T10:10:50;15.90;99.90
27647;DHT22;42229;51.230;6.240;2023-04-15T10:13:18;16.00;99.90
27647;DHT22;42229;51.230;6.240;2023-04-15T10:15:49;16.00;99.90
27647;DHT22;42229;51.230;6.240;2023-04-15T10:18:17;16.10;99.90
27647;DHT22;42229;51.230;6.240;2023-04-15T10:20:45;16.20;99.90
27647;DHT22;42229;51.230;6.240;2023-04-15T10:23:11;16.20;99.90
27647;DHT22;42229;51.230;6.240;2023-04-15T10:25:38;16.30;99.90
27647;DHT22;42229;51.230;6.240;2023-04-15T10:28:05;16.30;99.90
27647;DHT22;42229;51.230;6.240;2023-04-15T10:30:32;16.40;99.90
27647;DHT22;42229;51.230;6.240;2023-04-15T10:32:59;16.50;99.90
27647;DHT22;42229;51.230;6.240;2023-04-15T10:35:27;16.50;99.90
27647;DHT22;42229;51.230;6.240;2023-04-15T10:37:55;16.50;99.90
27647;DHT22;42229;51.230;6.240;2023-04-15T10:42:58;16.60;99.90
27647;DHT22;42229;51.230;6.240;2023-04-15T10:45:32;16.60;99.90
27647;DHT22;42229;51.230;6.240;2023-04-15T10:48:02;16.70;99.90
27647;DHT22;42229;51.230;6.240;2023-04-15T10:50:30;16.70;99.90
27647;DHT22;42229;51.230;6.240;2023-04-15T10:52:57;16.70;99.90
27647;DHT22;42229;51.230;6.240;2023-04-15T10:55:24;16.70;99.90
27647;DHT22;42229;51.230;6.240;2023-04-15T10:57:52;16.70;99.90
27647;DHT22;42229;51.230;6.240;2023-04-15T11:00:21;16.70;99.90
27647;DHT22;42229;51.230;6.240;2023-04-15T11:08:15;16.90;99.90
27647;DHT22;42229;51.230;6.240;2023-04-15T11:15:37;17.10;99.90
27647;DHT22;42229;51.230;6.240;2023-04-15T11:18:11;17.10;99.90
27647;DHT22;42229;51.230;6.240;2023-04-15T11:20:39;17.00;99.90
27647;DHT22;42229;51.230;6.240;2023-04-15T11:23:06;17.00;99.90
27647;DHT22;42229;51.230;6.240;2023-04-15T11:25:34;17.00;99.90
27647;DHT22;42229;51.230;6.240;2023-04-15T11:28:02;17.00;99.90
27647;DHT22;42229;51.230;6.240;2023-04-15T11:30:29;17.10;99.90
27647;DHT22;42229;51.230;6.240;2023-04-15T11:32:59;17.10;99.90
27647;DHT22;42229;51.230;6.240;2023-04-15T11:35:26;17.10;99.90
27647;DHT22;42229;51.230;6.240;2023-04-15T11:37:53;17.10;99.90
27647;DHT22;42229;51.230;6.240;2023-04-15T11:40:23;17.20;99.90
27647;DHT22;42229;51.230;6.240;2023-04-15T11:43:06;17.20;99.90
27647;DHT22;42229;51.230;6.240;2023-04-15T11:45:37;17.20;99.90
27647;DHT22;42229;51.230;6.240;2023-04-15T11:48:12;17.30;99.90
27647;DHT22;42229;51.230;6.240;2023-04-15T11:50:39;17.20;99.90
27647;DHT22;42229;51.230;6.240;2023-04-15T11:53:07;17.20;99.90
27647;DHT22;42229;51.230;6.240;2023-04-15T11:55:41;17.20;99.90
27647;DHT22;42229;51.230;6.240;2023-04-15T12:00:40;17.10;99.90
27647;DHT22;42229;51.230;6.240;2023-04-15T12:03:24;17.10;99.90
27647;DHT22;42229;51.230;6.240;2023-04-15T12:06:05;17.20;99.90
27647;DHT22;42229;51.230;6.240;2023-04-15T12:11:35;17.40;99.90
27647;DHT22;42229;51.230;6.240;2023-04-15T12:14:04;17.60;99.90
27647;DHT22;42229;51.230;6.240;2023-04-15T12:16:43;17.70;99.90
27647;DHT22;42229;51.230;6.240;2023-04-15T12:19:12;17.80;99.90
27647;DHT22;42229;51.230;6.240;2023-04-15T12:21:39;17.90;99.90
27647;DHT22;42229;51.230;6.240;2023-04-15T12:24:08;18.00;99.90
27647;DHT22;42229;51.230;6.240;2023-04-15T12:29:07;18.20;99.90
27647;DHT22;42229;51.230;6.240;2023-04-15T12:31:34;18.40;99.90
27647;DHT22;42229;51.230;6.240;2023-04-15T12:34:02;18.60;99.90
27647;DHT22;42229;51.230;6.240;2023-04-15T12:36:29;18.80;99.90
27647;DHT22;42229;51.230;6.240;2023-04-15T12:39:01;19.00;99.90
27647;DHT22;42229;51.230;6.240;2023-04-15T12:41:29;19.10;99.90
27647;DHT22;42229;51.230;6.240;2023-04-15T12:43:55;19.10;99.90
27647;DHT22;42229;51.230;6.240;2023-04-15T12:46:22;19.20;99.90
27647;DHT22;42229;51.230;6.240;2023-04-15T12:48:49;19.20;99.90
27647;DHT22;42229;51.230;6.240;2023-04-15T12:51:16;19.20;99.90
27647;DHT22;42229;51.230;6.240;2023-04-15T12:53:42;19.20;99.90
27647;DHT22;42229;51.230;6.240;2023-04-15T12:56:08;19.10;99.90
27647;DHT22;42229;51.230;6.240;2023-04-15T12:58:34;19.10;99.90
27647;DHT22;42229;51.230;6.240;2023-04-15T13:01:01;18.90;99.90
27647;DHT22;42229;51.230;6.240;2023-04-15T13:03:28;18.80;99.90
27647;DHT22;42229;51.230;6.240;2023-04-15T13:05:54;18.70;99.90
27647;DHT22;42229;51.230;6.240;2023-04-15T13:08:20;18.60;99.90
27647;DHT22;42229;51.230;6.240;2023-04-15T13:10:46;18.50;99.90
27647;DHT22;42229;51.230;6.240;2023-04-15T13:13:13;18.40;99.90
27647;DHT22;42229;51.230;6.240;2023-04-15T13:15:39;18.30;99.90
27647;DHT22;42229;51.230;6.240;2023-04-15T13:18:05;18.20;99.90
27647;DHT22;42229;51.230;6.240;2023-04-15T13:20:32;18.20;99.90
27647;DHT22;42229;51.230;6.240;2023-04-15T13:22:58;18.30;99.90
27647;DHT22;42229;51.230;6.240;2023-04-15T13:25:24;18.50;99.90
27647;DHT22;42229;51.230;6.240;2023-04-15T13:27:51;18.70;99.90
27647;DHT22;42229;51.230;6.240;2023-04-15T13:30:18;18.90;99.90
27647;DHT22;42229;51.230;6.240;2023-04-15T13:32:44;19.00;99.90
27647;DHT22;42229;51.230;6.240;2023-04-15T13:35:10;19.10;99.90
27647;DHT22;42229;51.230;6.240;2023-04-15T13:37:36;19.00;99.90
27647;DHT22;42229;51.230;6.240;2023-04-15T13:40:04;18.90;99.90
27647;DHT22;42229;51.230;6.240;2023-04-15T13:42:32;18.90;99.90
27647;DHT22;42229;51.230;6.240;2023-04-15T13:44:58;18.80;99.90
27647;DHT22;42229;51.230;6.240;2023-04-15T13:47:24;18.70;99.90
27647;DHT22;42229;51.230;6.240;2023-04-15T13:49:54;18.60;99.90
27647;DHT22;42229;51.230;6.240;2023-04-15T13:52:21;18.40;99.90
27647;DHT22;42229;51.230;6.240;2023-04-15T13:54:48;18.30;99.90
27647;DHT22;42229;51.230;6.240;2023-04-15T13:57:14;18.20;99.90
27647;DHT22;42229;51.230;6.240;2023-04-15T13:59:41;18.10;99.90
27647;DHT22;42229;51.230;6.240;2023-04-15T14:02:07;18.00;99.90
27647;DHT22;42229;51.230;6.240;2023-04-15T14:04:33;17.90;99.90
27647;DHT22;42229;51.230;6.240;2023-04-15T14:06:59;17.80;99.90
27647;DHT22;42229;51.230;6.240;2023-04-15T14:09:26;17.60;99.90
27647;DHT22;42229;51.230;6.240;2023-04-15T14:11:52;17.60;99.90
27647;DHT22;42229;51.230;6.240;2023-04-15T14:14:18;17.50;99.90
27647;DHT22;42229;51.230;6.240;2023-04-15T14:16:44;17.40;99.90
27647;DHT22;42229;51.230;6.240;2023-04-15T14:19:11;17.30;99.90
27647;DHT22;42229;51.230;6.240;2023-04-15T14:21:37;17.30;99.90
27647;DHT22;42229;51.230;6.240;2023-04-15T14:24:03;17.20;99.90
27647;DHT22;42229;51.230;6.240;2023-04-15T14:26:30;17.10;99.90
27647;DHT22;42229;51.230;6.240;2023-04-15T14:28:56;17.10;99.90
27647;DHT22;42229;51.230;6.240;2023-04-15T14:31:22;17.10;99.90
27647;DHT22;42229;51.230;6.240;2023-04-15T14:33:48;17.10;99.90
27647;DHT22;42229;51.230;6.240;2023-04-15T14:36:14;17.00;99.90
27647;DHT22;42229;51.230;6.240;2023-04-15T14:38:41;17.10;99.90
27647;DHT22;42229;51.230;6.240;2023-04-15T14:41:07;17.00;99.90
27647;DHT22;42229;51.230;6.240;2023-04-15T14:43:35;17.10;99.90
27647;DHT22;42229;51.230;6.240;2023-04-15T14:46:01;17.20;99.90
27647;DHT22;42229;51.230;6.240;2023-04-15T14:48:27;17.20;99.90
27647;DHT22;42229;51.230;6.240;2023-04-15T14:50:54;17.30;99.90
27647;DHT22;42229;51.230;6.240;2023-04-15T14:53:20;17.50;99.90
27647;DHT22;42229;51.230;6.240;2023-04-15T14:55:46;17.60;99.90
27647;DHT22;42229;51.230;6.240;2023-04-15T14:58:12;17.70;99.90
27647;DHT22;42229;51.230;6.240;2023-04-15T15:00:38;17.70;99.90
27647;DHT22;42229;51.230;6.240;2023-04-15T15:03:09;17.80;99.90
27647;DHT22;42229;51.230;6.240;2023-04-15T15:05:43;17.80;99.90
27647;DHT22;42229;51.230;6.240;2023-04-15T15:08:11;17.80;99.90
27647;DHT22;42229;51.230;6.240;2023-04-15T15:10:38;17.80;99.90
27647;DHT22;42229;51.230;6.240;2023-04-15T15:13:06;17.70;99.90
27647;DHT22;42229;51.230;6.240;2023-04-15T15:15:33;17.80;99.90
27647;DHT22;42229;51.230;6.240;2023-04-15T15:18:00;17.90;99.90
27647;DHT22;42229;51.230;6.240;2023-04-15T15:20:26;18.00;99.90
27647;DHT22;42229;51.230;6.240;2023-04-15T15:22:53;18.10;99.90
27647;DHT22;42229;51.230;6.240;2023-04-15T15:25:19;18.10;99.90
27647;DHT22;42229;51.230;6.240;2023-04-15T15:27:45;18.00;99.90
27647;DHT22;42229;51.230;6.240;2023-04-15T15:30:12;17.90;99.90
27647;DHT22;42229;51.230;6.240;2023-04-15T15:32:38;17.80;99.90
27647;DHT22;42229;51.230;6.240;2023-04-15T15:35:05;17.70;99.90
27647;DHT22;42229;51.230;6.240;2023-04-15T15:37:32;17.60;99.90
27647;DHT22;42229;51.230;6.240;2023-04-15T15:39:58;17.60;99.90
27647;DHT22;42229;51.230;6.240;2023-04-15T15:42:25;17.60;99.90
27647;DHT22;42229;51.230;6.240;2023-04-15T15:44:52;17.60;99.90
27647;DHT22;42229;51.230;6.240;2023-04-15T15:47:18;17.60;99.90
27647;DHT22;42229;51.230;6.240;2023-04-15T15:49:44;17.50;99.90
27647;DHT22;42229;51.230;6.240;2023-04-15T15:52:11;17.50;99.90
27647;DHT22;42229;51.230;6.240;2023-04-15T15:54:40;17.50;99.90
27647;DHT22;42229;51.230;6.240;2023-04-15T15:57:06;17.40;99.90